KMCW

Mason City Municipal Airport

Mason City, Iowa, USA
METAR KMCW 141753Z AUTO 21004KT 10SM CLR M01/M01 A3023 RMK AO2 SLP246 I6004 T10111011 11011 21067 58009
Observed Flight Rules
Dec-14 @ 17:53 UTC (33 minutes ago) Visual Flight Rules
Wind Visibility Clouds
210° at 4 knots 10 miles
  • Clear skies
Temperatures Readings
Current -1°C / 30°F
Dewpoint -1°C / 30°F
Humidity 100%
Altimeter 30.23" Hg
Pressure 1024.6 hPa
Elevation 369
METAR KMCW 141753Z AUTO 21004KT 10SM CLR M01/M01 A3023 RMK AO2 SLP246 I6004 T10111011 11011 21067 58009
Observed Flight Rules
Dec-14 @ 17:53 UTC
(33 minutes ago)
VFR
Wind Visibility
210° at 4 knots 10 miles
Clouds
  • Clear skies
Temperature Dewpoint
-1°C / 30°F -1°C / 30°F
Humidity Altimeter Pressure
100% 30.23" Hg 1024.6 hPa